sensor_id;sensor_type;location;lat;lon;timestamp;temperature;humidity
21944;DHT22;11136;48.778;9.126;2023-05-18T00:01:31;10.00;92.30
21944;DHT22;11136;48.778;9.126;2023-05-18T00:03:57;10.00;92.40
21944;DHT22;11136;48.778;9.126;2023-05-18T00:06:23;10.00;92.40
21944;DHT22;11136;48.778;9.126;2023-05-18T00:08:50;10.00;92.50
21944;DHT22;11136;48.778;9.126;2023-05-18T00:11:16;10.00;92.50
21944;DHT22;11136;48.778;9.126;2023-05-18T00:13:42;10.00;92.60
21944;DHT22;11136;48.778;9.126;2023-05-18T00:16:08;10.00;92.70
21944;DHT22;11136;48.778;9.126;2023-05-18T00:18:36;10.00;92.70
21944;DHT22;11136;48.778;9.126;2023-05-18T00:21:02;10.00;92.80
21944;DHT22;11136;48.778;9.126;2023-05-18T00:23:28;10.00;92.80
21944;DHT22;11136;48.778;9.126;2023-05-18T00:26:01;10.00;92.80
21944;DHT22;11136;48.778;9.126;2023-05-18T00:28:27;9.90;92.90
21944;DHT22;11136;48.778;9.126;2023-05-18T00:30:53;9.90;92.90
21944;DHT22;11136;48.778;9.126;2023-05-18T00:33:19;9.90;93.00
21944;DHT22;11136;48.778;9.126;2023-05-18T00:35:45;9.90;93.00
21944;DHT22;11136;48.778;9.126;2023-05-18T00:38:11;9.80;93.10
21944;DHT22;11136;48.778;9.126;2023-05-18T00:40:38;9.80;93.10
21944;DHT22;11136;48.778;9.126;2023-05-18T00:43:03;9.80;93.20
21944;DHT22;11136;48.778;9.126;2023-05-18T00:45:29;9.80;93.30
21944;DHT22;11136;48.778;9.126;2023-05-18T00:47:55;9.80;93.40
21944;DHT22;11136;48.778;9.126;2023-05-18T00:50:26;9.80;93.40
21944;DHT22;11136;48.778;9.126;2023-05-18T00:52:53;9.80;93.50
21944;DHT22;11136;48.778;9.126;2023-05-18T00:55:21;9.70;93.40
21944;DHT22;11136;48.778;9.126;2023-05-18T00:57:46;9.80;93.60
21944;DHT22;11136;48.778;9.126;2023-05-18T01:00:13;9.70;93.60
21944;DHT22;11136;48.778;9.126;2023-05-18T01:02:40;9.70;93.70
21944;DHT22;11136;48.778;9.126;2023-05-18T01:05:11;9.60;93.70
21944;DHT22;11136;48.778;9.126;2023-05-18T01:07:40;9.70;94.20
21944;DHT22;11136;48.778;9.126;2023-05-18T01:10:14;9.70;93.90
21944;DHT22;11136;48.778;9.126;2023-05-18T01:12:51;9.60;94.00
21944;DHT22;11136;48.778;9.126;2023-05-18T01:15:43;9.60;93.90
21944;DHT22;11136;48.778;9.126;2023-05-18T01:18:31;9.60;93.90
21944;DHT22;11136;48.778;9.126;2023-05-18T01:26:33;9.50;94.10
21944;DHT22;11136;48.778;9.126;2023-05-18T01:29:08;9.50;94.20
21944;DHT22;11136;48.778;9.126;2023-05-18T01:31:35;9.50;94.20
21944;DHT22;11136;48.778;9.126;2023-05-18T01:34:01;9.40;94.20
21944;DHT22;11136;48.778;9.126;2023-05-18T01:36:27;9.40;94.30
21944;DHT22;11136;48.778;9.126;2023-05-18T01:38:54;9.40;94.30
21944;DHT22;11136;48.778;9.126;2023-05-18T01:46:59;9.30;94.60
21944;DHT22;11136;48.778;9.126;2023-05-18T01:49:50;9.30;94.60
21944;DHT22;11136;48.778;9.126;2023-05-18T01:52:31;9.20;94.60
21944;DHT22;11136;48.778;9.126;2023-05-18T01:55:00;9.20;94.60
21944;DHT22;11136;48.778;9.126;2023-05-18T01:57:28;9.20;94.70
21944;DHT22;11136;48.778;9.126;2023-05-18T01:59:57;9.10;94.70
21944;DHT22;11136;48.778;9.126;2023-05-18T02:02:25;9.10;94.80
21944;DHT22;11136;48.778;9.126;2023-05-18T02:04:50;9.10;94.80
21944;DHT22;11136;48.778;9.126;2023-05-18T02:07:16;9.10;94.90
21944;DHT22;11136;48.778;9.126;2023-05-18T02:09:42;9.10;94.90
21944;DHT22;11136;48.778;9.126;2023-05-18T02:12:09;9.10;94.90
21944;DHT22;11136;48.778;9.126;2023-05-18T02:14:35;9.00;94.90
21944;DHT22;11136;48.778;9.126;2023-05-18T02:17:00;9.00;94.90
21944;DHT22;11136;48.778;9.126;2023-05-18T02:19:26;9.00;94.90
21944;DHT22;11136;48.778;9.126;2023-05-18T02:21:52;8.90;94.90
21944;DHT22;11136;48.778;9.126;2023-05-18T02:24:17;8.90;95.00
21944;DHT22;11136;48.778;9.126;2023-05-18T02:26:43;8.90;95.00
21944;DHT22;11136;48.778;9.126;2023-05-18T02:29:09;8.90;95.10
21944;DHT22;11136;48.778;9.126;2023-05-18T02:31:36;8.80;95.10
21944;DHT22;11136;48.778;9.126;2023-05-18T02:34:02;8.80;95.20
21944;DHT22;11136;48.778;9.126;2023-05-18T02:36:28;8.80;95.20
21944;DHT22;11136;48.778;9.126;2023-05-18T02:39:05;8.70;95.20
21944;DHT22;11136;48.778;9.126;2023-05-18T02:41:32;8.70;95.20
21944;DHT22;11136;48.778;9.126;2023-05-18T02:43:57;8.70;95.30
21944;DHT22;11136;48.778;9.126;2023-05-18T02:46:24;8.70;95.40
21944;DHT22;11136;48.778;9.126;2023-05-18T02:48:50;8.70;95.40
21944;DHT22;11136;48.778;9.126;2023-05-18T02:51:15;8.60;95.40
21944;DHT22;11136;48.778;9.126;2023-05-18T02:53:42;8.60;95.40
21944;DHT22;11136;48.778;9.126;2023-05-18T02:56:10;8.60;95.40
21944;DHT22;11136;48.778;9.126;2023-05-18T02:58:37;8.60;95.40
21944;DHT22;11136;48.778;9.126;2023-05-18T03:01:04;8.60;95.40
21944;DHT22;11136;48.778;9.126;2023-05-18T03:03:32;8.50;95.40
21944;DHT22;11136;48.778;9.126;2023-05-18T03:06:00;8.50;95.40
21944;DHT22;11136;48.778;9.126;2023-05-18T03:08:28;8.50;95.50
21944;DHT22;11136;48.778;9.126;2023-05-18T03:10:58;8.50;95.50
21944;DHT22;11136;48.778;9.126;2023-05-18T03:13:24;8.50;95.50
21944;DHT22;11136;48.778;9.126;2023-05-18T03:15:50;8.40;95.50
21944;DHT22;11136;48.778;9.126;2023-05-18T03:18:17;8.40;95.60
21944;DHT22;11136;48.778;9.126;2023-05-18T03:20:43;8.40;95.60
21944;DHT22;11136;48.778;9.126;2023-05-18T03:23:09;8.40;95.60
21944;DHT22;11136;48.778;9.126;2023-05-18T03:25:35;8.30;95.60
21944;DHT22;11136;48.778;9.126;2023-05-18T03:28:02;8.30;95.70
21944;DHT22;11136;48.778;9.126;2023-05-18T03:30:32;8.30;95.70
21944;DHT22;11136;48.778;9.126;2023-05-18T03:32:59;8.30;95.70
21944;DHT22;11136;48.778;9.126;2023-05-18T03:35:25;8.30;95.70
21944;DHT22;11136;48.778;9.126;2023-05-18T03:37:50;8.20;95.80
21944;DHT22;11136;48.778;9.126;2023-05-18T03:40:16;8.20;95.80
21944;DHT22;11136;48.778;9.126;2023-05-18T03:42:42;8.20;95.80
21944;DHT22;11136;48.778;9.126;2023-05-18T03:45:09;8.20;95.80
21944;DHT22;11136;48.778;9.126;2023-05-18T03:47:35;8.20;95.90
21944;DHT22;11136;48.778;9.126;2023-05-18T03:50:01;8.10;95.90
21944;DHT22;11136;48.778;9.126;2023-05-18T03:52:27;8.10;95.90
21944;DHT22;11136;48.778;9.126;2023-05-18T03:54:54;8.10;96.00
21944;DHT22;11136;48.778;9.126;2023-05-18T03:57:21;8.10;96.00
21944;DHT22;11136;48.778;9.126;2023-05-18T03:59:46;8.10;96.10
21944;DHT22;11136;48.778;9.126;2023-05-18T04:02:12;8.10;96.10
21944;DHT22;11136;48.778;9.126;2023-05-18T04:04:38;8.10;96.20
21944;DHT22;11136;48.778;9.126;2023-05-18T04:07:12;8.10;96.20
21944;DHT22;11136;48.778;9.126;2023-05-18T04:09:38;8.10;96.20
21944;DHT22;11136;48.778;9.126;2023-05-18T04:12:04;8.10;96.30
21944;DHT22;11136;48.778;9.126;2023-05-18T04:14:30;8.10;96.30
21944;DHT22;11136;48.778;9.126;2023-05-18T04:16:57;8.10;96.40
21944;DHT22;11136;48.778;9.126;2023-05-18T04:19:32;8.00;96.50
21944;DHT22;11136;48.778;9.126;2023-05-18T04:21:58;8.10;96.50
21944;DHT22;11136;48.778;9.126;2023-05-18T04:24:24;8.00;96.60
21944;DHT22;11136;48.778;9.126;2023-05-18T04:26:51;8.10;96.70
21944;DHT22;11136;48.778;9.126;2023-05-18T04:29:17;8.00;96.70
21944;DHT22;11136;48.778;9.126;2023-05-18T04:31:44;8.10;96.80
21944;DHT22;11136;48.778;9.126;2023-05-18T04:34:13;8.10;96.90
21944;DHT22;11136;48.778;9.126;2023-05-18T04:36:42;8.10;97.00
21944;DHT22;11136;48.778;9.126;2023-05-18T04:39:09;8.10;97.10
21944;DHT22;11136;48.778;9.126;2023-05-18T04:41:35;8.10;97.20
21944;DHT22;11136;48.778;9.126;2023-05-18T04:44:01;8.10;97.30
21944;DHT22;11136;48.778;9.126;2023-05-18T04:46:28;8.10;97.40
21944;DHT22;11136;48.778;9.126;2023-05-18T04:48:54;8.10;97.40
21944;DHT22;11136;48.778;9.126;2023-05-18T04:51:22;8.20;97.60
21944;DHT22;11136;48.778;9.126;2023-05-18T04:53:48;8.20;97.70
21944;DHT22;11136;48.778;9.126;2023-05-18T04:56:16;8.20;97.70
21944;DHT22;11136;48.778;9.126;2023-05-18T04:58:42;8.20;97.80
21944;DHT22;11136;48.778;9.126;2023-05-18T05:01:10;8.20;97.90
21944;DHT22;11136;48.778;9.126;2023-05-18T05:03:36;8.30;98.00
21944;DHT22;11136;48.778;9.126;2023-05-18T05:06:02;8.30;98.20
21944;DHT22;11136;48.778;9.126;2023-05-18T05:08:28;8.30;98.20
21944;DHT22;11136;48.778;9.126;2023-05-18T05:10:53;8.30;98.30
21944;DHT22;11136;48.778;9.126;2023-05-18T05:13:19;8.40;98.40
21944;DHT22;11136;48.778;9.126;2023-05-18T05:15:44;8.40;98.50
21944;DHT22;11136;48.778;9.126;2023-05-18T05:18:10;8.40;98.60
21944;DHT22;11136;48.778;9.126;2023-05-18T05:20:35;8.40;98.60
21944;DHT22;11136;48.778;9.126;2023-05-18T05:23:01;8.50;98.70
21944;DHT22;11136;48.778;9.126;2023-05-18T05:25:26;8.50;98.70
21944;DHT22;11136;48.778;9.126;2023-05-18T05:27:52;8.50;98.80
21944;DHT22;11136;48.778;9.126;2023-05-18T05:30:18;8.60;98.90
21944;DHT22;11136;48.778;9.126;2023-05-18T05:32:43;8.60;98.90
21944;DHT22;11136;48.778;9.126;2023-05-18T05:35:09;8.60;98.90
21944;DHT22;11136;48.778;9.126;2023-05-18T05:37:35;8.70;98.90
21944;DHT22;11136;48.778;9.126;2023-05-18T05:40:00;8.70;98.90
21944;DHT22;11136;48.778;9.126;2023-05-18T05:42:26;8.80;98.90
21944;DHT22;11136;48.778;9.126;2023-05-18T05:44:51;8.80;98.90
21944;DHT22;11136;48.778;9.126;2023-05-18T05:47:17;8.90;98.90
21944;DHT22;11136;48.778;9.126;2023-05-18T05:49:43;8.90;98.90
21944;DHT22;11136;48.778;9.126;2023-05-18T05:52:08;9.00;98.90
21944;DHT22;11136;48.778;9.126;2023-05-18T05:54:34;9.00;98.80
21944;DHT22;11136;48.778;9.126;2023-05-18T05:56:59;9.00;98.80
21944;DHT22;11136;48.778;9.126;2023-05-18T05:59:25;9.10;98.80
21944;DHT22;11136;48.778;9.126;2023-05-18T06:01:51;9.10;98.80
21944;DHT22;11136;48.778;9.126;2023-05-18T06:04:17;9.20;98.80
21944;DHT22;11136;48.778;9.126;2023-05-18T06:06:42;9.50;98.80
21944;DHT22;11136;48.778;9.126;2023-05-18T06:09:08;9.30;98.70
21944;DHT22;11136;48.778;9.126;2023-05-18T06:11:34;9.30;98.60
21944;DHT22;11136;48.778;9.126;2023-05-18T06:14:00;9.40;98.60
21944;DHT22;11136;48.778;9.126;2023-05-18T06:16:26;9.40;98.60
21944;DHT22;11136;48.778;9.126;2023-05-18T06:18:51;9.50;98.60
21944;DHT22;11136;48.778;9.126;2023-05-18T06:21:17;9.50;98.50
21944;DHT22;11136;48.778;9.126;2023-05-18T06:23:43;9.60;98.50
21944;DHT22;11136;48.778;9.126;2023-05-18T06:26:09;9.60;98.40
21944;DHT22;11136;48.778;9.126;2023-05-18T06:28:35;9.70;98.40
21944;DHT22;11136;48.778;9.126;2023-05-18T06:31:01;9.70;98.30
21944;DHT22;11136;48.778;9.126;2023-05-18T06:33:26;9.80;98.20
21944;DHT22;11136;48.778;9.126;2023-05-18T06:35:53;9.90;98.20
21944;DHT22;11136;48.778;9.126;2023-05-18T06:38:18;9.90;98.10
21944;DHT22;11136;48.778;9.126;2023-05-18T06:40:44;10.00;98.00
21944;DHT22;11136;48.778;9.126;2023-05-18T06:43:10;10.00;97.90
21944;DHT22;11136;48.778;9.126;2023-05-18T06:45:35;10.10;97.70
21944;DHT22;11136;48.778;9.126;2023-05-18T06:48:01;10.20;97.70
21944;DHT22;11136;48.778;9.126;2023-05-18T06:50:27;10.20;97.60
21944;DHT22;11136;48.778;9.126;2023-05-18T06:52:52;10.30;97.60
21944;DHT22;11136;48.778;9.126;2023-05-18T06:55:18;10.30;97.50
21944;DHT22;11136;48.778;9.126;2023-05-18T06:57:44;10.40;97.40
21944;DHT22;11136;48.778;9.126;2023-05-18T07:00:10;10.40;97.30
21944;DHT22;11136;48.778;9.126;2023-05-18T07:02:37;10.50;97.20
21944;DHT22;11136;48.778;9.126;2023-05-18T07:05:04;10.50;97.20
21944;DHT22;11136;48.778;9.126;2023-05-18T07:07:30;10.60;97.10
21944;DHT22;11136;48.778;9.126;2023-05-18T07:09:56;10.60;97.30
21944;DHT22;11136;48.778;9.126;2023-05-18T07:12:23;10.70;97.10
21944;DHT22;11136;48.778;9.126;2023-05-18T07:14:50;10.80;97.10
21944;DHT22;11136;48.778;9.126;2023-05-18T07:17:16;10.80;97.00
21944;DHT22;11136;48.778;9.126;2023-05-18T07:19:42;10.90;96.90
21944;DHT22;11136;48.778;9.126;2023-05-18T07:22:07;11.20;97.00
21944;DHT22;11136;48.778;9.126;2023-05-18T07:24:33;11.00;96.80
21944;DHT22;11136;48.778;9.126;2023-05-18T07:26:58;11.10;96.80
21944;DHT22;11136;48.778;9.126;2023-05-18T07:29:24;11.10;96.80
21944;DHT22;11136;48.778;9.126;2023-05-18T07:31:50;11.20;96.80
21944;DHT22;11136;48.778;9.126;2023-05-18T07:34:15;11.30;96.80
21944;DHT22;11136;48.778;9.126;2023-05-18T07:36:41;11.40;96.70
21944;DHT22;11136;48.778;9.126;2023-05-18T07:39:07;11.40;96.70
21944;DHT22;11136;48.778;9.126;2023-05-18T07:41:33;11.50;96.70
21944;DHT22;11136;48.778;9.126;2023-05-18T07:43:59;11.60;96.60
21944;DHT22;11136;48.778;9.126;2023-05-18T07:46:24;11.70;96.50
21944;DHT22;11136;48.778;9.126;2023-05-18T07:48:50;11.70;96.50
21944;DHT22;11136;48.778;9.126;2023-05-18T07:51:16;11.80;96.40
21944;DHT22;11136;48.778;9.126;2023-05-18T07:53:41;11.90;96.40
21944;DHT22;11136;48.778;9.126;2023-05-18T07:56:07;12.00;96.30
21944;DHT22;11136;48.778;9.126;2023-05-18T07:58:36;12.10;96.20
21944;DHT22;11136;48.778;9.126;2023-05-18T08:01:02;12.20;96.20
21944;DHT22;11136;48.778;9.126;2023-05-18T08:03:28;12.30;96.10
21944;DHT22;11136;48.778;9.126;2023-05-18T08:05:53;12.40;96.10
21944;DHT22;11136;48.778;9.126;2023-05-18T08:08:19;12.50;96.00
21944;DHT22;11136;48.778;9.126;2023-05-18T08:10:45;12.60;95.90
21944;DHT22;11136;48.778;9.126;2023-05-18T08:13:10;12.70;95.70
21944;DHT22;11136;48.778;9.126;2023-05-18T08:15:38;12.80;95.50
21944;DHT22;11136;48.778;9.126;2023-05-18T08:18:05;12.90;95.30
21944;DHT22;11136;48.778;9.126;2023-05-18T08:20:30;13.00;95.20
21944;DHT22;11136;48.778;9.126;2023-05-18T08:22:56;13.10;95.10
21944;DHT22;11136;48.778;9.126;2023-05-18T08:25:23;13.20;94.90
21944;DHT22;11136;48.778;9.126;2023-05-18T08:27:49;13.30;94.70
21944;DHT22;11136;48.778;9.126;2023-05-18T08:30:15;13.40;94.70
21944;DHT22;11136;48.778;9.126;2023-05-18T08:32:41;13.70;94.60
21944;DHT22;11136;48.778;9.126;2023-05-18T08:35:07;14.00;94.40
21944;DHT22;11136;48.778;9.126;2023-05-18T08:37:33;14.50;94.10
21944;DHT22;11136;48.778;9.126;2023-05-18T08:40:02;14.90;93.60
21944;DHT22;11136;48.778;9.126;2023-05-18T08:42:33;15.40;93.10
21944;DHT22;11136;48.778;9.126;2023-05-18T08:45:35;15.80;92.30
21944;DHT22;11136;48.778;9.126;2023-05-18T08:48:02;16.00;91.60
21944;DHT22;11136;48.778;9.126;2023-05-18T08:50:31;16.20;91.20
21944;DHT22;11136;48.778;9.126;2023-05-18T08:53:00;16.20;90.50
21944;DHT22;11136;48.778;9.126;2023-05-18T08:55:27;16.40;90.10
21944;DHT22;11136;48.778;9.126;2023-05-18T08:57:56;16.10;89.60
21944;DHT22;11136;48.778;9.126;2023-05-18T09:00:22;16.00;88.60
21944;DHT22;11136;48.778;9.126;2023-05-18T09:02:48;15.90;88.00
21944;DHT22;11136;48.778;9.126;2023-05-18T09:05:15;15.80;88.20
21944;DHT22;11136;48.778;9.126;2023-05-18T09:07:42;15.80;88.30
21944;DHT22;11136;48.778;9.126;2023-05-18T09:10:12;15.70;88.10
21944;DHT22;11136;48.778;9.126;2023-05-18T09:12:41;15.70;87.80
21944;DHT22;11136;48.778;9.126;2023-05-18T09:15:09;15.80;87.90
21944;DHT22;11136;48.778;9.126;2023-05-18T09:17:35;16.00;87.30
21944;DHT22;11136;48.778;9.126;2023-05-18T09:20:00;16.30;87.20
21944;DHT22;11136;48.778;9.126;2023-05-18T09:22:26;16.60;86.90
21944;DHT22;11136;48.778;9.126;2023-05-18T09:24:52;17.00;86.40
21944;DHT22;11136;48.778;9.126;2023-05-18T09:27:18;17.20;84.70
21944;DHT22;11136;48.778;9.126;2023-05-18T09:29:56;17.20;82.80
21944;DHT22;11136;48.778;9.126;2023-05-18T09:32:22;17.30;82.40
21944;DHT22;11136;48.778;9.126;2023-05-18T09:34:48;17.50;82.60
21944;DHT22;11136;48.778;9.126;2023-05-18T09:37:21;17.80;81.00
21944;DHT22;11136;48.778;9.126;2023-05-18T09:40:03;18.00;81.00
21944;DHT22;11136;48.778;9.126;2023-05-18T09:42:37;18.30;80.50
21944;DHT22;11136;48.778;9.126;2023-05-18T09:45:22;18.50;79.90
21944;DHT22;11136;48.778;9.126;2023-05-18T09:47:52;18.70;77.80
21944;DHT22;11136;48.778;9.126;2023-05-18T09:50:21;18.80;76.30
21944;DHT22;11136;48.778;9.126;2023-05-18T09:52:47;18.90;76.80
21944;DHT22;11136;48.778;9.126;2023-05-18T09:55:19;19.00;75.20
21944;DHT22;11136;48.778;9.126;2023-05-18T09:57:46;19.10;74.60
21944;DHT22;11136;48.778;9.126;2023-05-18T10:00:17;19.20;73.80
21944;DHT22;11136;48.778;9.126;2023-05-18T10:02:48;19.30;72.90
21944;DHT22;11136;48.778;9.126;2023-05-18T10:05:28;19.30;72.70
21944;DHT22;11136;48.778;9.126;2023-05-18T10:07:59;19.40;71.50
21944;DHT22;11136;48.778;9.126;2023-05-18T10:10:27;19.30;71.00
21944;DHT22;11136;48.778;9.126;2023-05-18T10:12:56;19.30;70.20
21944;DHT22;11136;48.778;9.126;2023-05-18T10:15:23;19.30;69.80
21944;DHT22;11136;48.778;9.126;2023-05-18T10:17:50;19.20;68.10
21944;DHT22;11136;48.778;9.126;2023-05-18T10:20:20;19.20;69.10
21944;DHT22;11136;48.778;9.126;2023-05-18T10:22:47;19.10;68.70
21944;DHT22;11136;48.778;9.126;2023-05-18T10:25:25;19.00;69.60
21944;DHT22;11136;48.778;9.126;2023-05-18T10:27:56;19.00;68.70
21944;DHT22;11136;48.778;9.126;2023-05-18T10:30:22;19.00;68.80
21944;DHT22;11136;48.778;9.126;2023-05-18T10:32:48;18.90;68.80
21944;DHT22;11136;48.778;9.126;2023-05-18T10:35:15;19.00;68.10
21944;DHT22;11136;48.778;9.126;2023-05-18T10:37:45;19.00;68.00
21944;DHT22;11136;48.778;9.126;2023-05-18T10:40:12;19.00;68.20
21944;DHT22;11136;48.778;9.126;2023-05-18T10:42:39;19.00;68.20
21944;DHT22;11136;48.778;9.126;2023-05-18T10:45:06;19.00;67.50
21944;DHT22;11136;48.778;9.126;2023-05-18T10:47:35;19.00;67.20
21944;DHT22;11136;48.778;9.126;2023-05-18T10:50:05;19.00;67.40
21944;DHT22;11136;48.778;9.126;2023-05-18T10:52:31;19.10;67.80
21944;DHT22;11136;48.778;9.126;2023-05-18T10:55:00;19.10;67.90
21944;DHT22;11136;48.778;9.126;2023-05-18T10:57:48;19.20;67.60
21944;DHT22;11136;48.778;9.126;2023-05-18T11:00:16;19.30;67.70
21944;DHT22;11136;48.778;9.126;2023-05-18T11:02:42;19.40;67.70
21944;DHT22;11136;48.778;9.126;2023-05-18T11:05:09;19.40;66.30
21944;DHT22;11136;48.778;9.126;2023-05-18T11:07:35;19.50;66.00
21944;DHT22;11136;48.778;9.126;2023-05-18T11:10:07;19.50;66.00
21944;DHT22;11136;48.778;9.126;2023-05-18T11:12:36;19.60;65.90
21944;DHT22;11136;48.778;9.126;2023-05-18T11:15:03;19.70;65.80
21944;DHT22;11136;48.778;9.126;2023-05-18T11:17:30;19.80;65.40
21944;DHT22;11136;48.778;9.126;2023-05-18T11:27:55;20.20;65.00
21944;DHT22;11136;48.778;9.126;2023-05-18T11:33:14;20.50;64.20
21944;DHT22;11136;48.778;9.126;2023-05-18T11:38:49;20.70;63.30
21944;DHT22;11136;48.778;9.126;2023-05-18T11:46:35;20.90;62.50
21944;DHT22;11136;48.778;9.126;2023-05-18T11:49:08;21.00;62.80
21944;DHT22;11136;48.778;9.126;2023-05-18T11:52:01;21.10;62.70
21944;DHT22;11136;48.778;9.126;2023-05-18T11:54:27;21.20;61.10
21944;DHT22;11136;48.778;9.126;2023-05-18T11:56:53;21.40;61.40
21944;DHT22;11136;48.778;9.126;2023-05-18T11:59:30;21.40;61.30
21944;DHT22;11136;48.778;9.126;2023-05-18T12:01:57;21.60;60.60
21944;DHT22;11136;48.778;9.126;2023-05-18T12:04:24;21.70;60.30
21944;DHT22;11136;48.778;9.126;2023-05-18T12:06:50;21.90;58.60
21944;DHT22;11136;48.778;9.126;2023-05-18T12:09:17;21.90;58.50
21944;DHT22;11136;48.778;9.126;2023-05-18T12:11:43;22.00;58.60
21944;DHT22;11136;48.778;9.126;2023-05-18T12:14:10;21.90;58.10
21944;DHT22;11136;48.778;9.126;2023-05-18T12:16:38;21.70;57.40
21944;DHT22;11136;48.778;9.126;2023-05-18T12:19:06;21.60;57.50
21944;DHT22;11136;48.778;9.126;2023-05-18T12:21:34;21.60;57.60
21944;DHT22;11136;48.778;9.126;2023-05-18T12:24:01;21.80;57.60
21944;DHT22;11136;48.778;9.126;2023-05-18T12:26:27;21.90;58.00
21944;DHT22;11136;48.778;9.126;2023-05-18T12:28:54;22.30;58.10
21944;DHT22;11136;48.778;9.126;2023-05-18T12:31:20;22.40;57.60
21944;DHT22;11136;48.778;9.126;2023-05-18T12:33:46;22.50;57.80
21944;DHT22;11136;48.778;9.126;2023-05-18T12:36:14;22.80;57.40
21944;DHT22;11136;48.778;9.126;2023-05-18T12:38:40;23.10;56.60
21944;DHT22;11136;48.778;9.126;2023-05-18T12:41:06;23.20;56.60
21944;DHT22;11136;48.778;9.126;2023-05-18T12:43:35;23.50;56.70
21944;DHT22;11136;48.778;9.126;2023-05-18T12:46:02;24.00;56.10
21944;DHT22;11136;48.778;9.126;2023-05-18T12:48:35;24.30;55.30
21944;DHT22;11136;48.778;9.126;2023-05-18T12:51:01;24.70;55.50
21944;DHT22;11136;48.778;9.126;2023-05-18T12:53:33;24.90;54.60
21944;DHT22;11136;48.778;9.126;2023-05-18T12:56:04;25.20;54.30
21944;DHT22;11136;48.778;9.126;2023-05-18T12:58:34;25.90;54.10
21944;DHT22;11136;48.778;9.126;2023-05-18T13:01:06;26.80;53.60
21944;DHT22;11136;48.778;9.126;2023-05-18T13:03:32;27.10;51.20
21944;DHT22;11136;48.778;9.126;2023-05-18T13:06:03;26.90;50.10
21944;DHT22;11136;48.778;9.126;2023-05-18T13:08:30;26.90;50.30
21944;DHT22;11136;48.778;9.126;2023-05-18T13:11:05;26.90;50.10
21944;DHT22;11136;48.778;9.126;2023-05-18T13:13:31;26.80;49.30
21944;DHT22;11136;48.778;9.126;2023-05-18T13:15:57;26.40;49.10
21944;DHT22;11136;48.778;9.126;2023-05-18T13:18:24;26.00;48.90
21944;DHT22;11136;48.778;9.126;2023-05-18T13:20:54;25.50;49.30
21944;DHT22;11136;48.778;9.126;2023-05-18T13:23:26;25.40;50.20
21944;DHT22;11136;48.778;9.126;2023-05-18T13:25:51;25.70;51.50
21944;DHT22;11136;48.778;9.126;2023-05-18T13:28:19;26.70;51.80
21944;DHT22;11136;48.778;9.126;2023-05-18T13:30:46;27.70;50.90
21944;DHT22;11136;48.778;9.126;2023-05-18T13:33:14;28.80;49.90
21944;DHT22;11136;48.778;9.126;2023-05-18T13:35:42;29.50;48.60
21944;DHT22;11136;48.778;9.126;2023-05-18T13:38:09;29.90;47.30
21944;DHT22;11136;48.778;9.126;2023-05-18T13:40:37;30.00;46.00
21944;DHT22;11136;48.778;9.126;2023-05-18T13:43:03;29.90;45.30
21944;DHT22;11136;48.778;9.126;2023-05-18T13:45:30;29.60;44.80
21944;DHT22;11136;48.778;9.126;2023-05-18T13:47:56;29.40;44.90
21944;DHT22;11136;48.778;9.126;2023-05-18T13:50:21;29.10;45.20
21944;DHT22;11136;48.778;9.126;2023-05-18T13:52:48;29.40;45.90
21944;DHT22;11136;48.778;9.126;2023-05-18T13:55:14;29.70;45.40
21944;DHT22;11136;48.778;9.126;2023-05-18T13:57:39;30.50;45.20
21944;DHT22;11136;48.778;9.126;2023-05-18T14:00:06;31.60;44.50
21944;DHT22;11136;48.778;9.126;2023-05-18T14:02:38;32.60;44.70
21944;DHT22;11136;48.778;9.126;2023-05-18T14:05:03;33.20;42.30
21944;DHT22;11136;48.778;9.126;2023-05-18T14:07:29;32.80;40.80
21944;DHT22;11136;48.778;9.126;2023-05-18T14:09:55;32.10;40.40
21944;DHT22;11136;48.778;9.126;2023-05-18T14:12:21;31.10;41.00
21944;DHT22;11136;48.778;9.126;2023-05-18T14:14:46;30.70;41.40
21944;DHT22;11136;48.778;9.126;2023-05-18T14:17:12;30.30;41.30
21944;DHT22;11136;48.778;9.126;2023-05-18T14:19:38;29.90;42.10
21944;DHT22;11136;48.778;9.126;2023-05-18T14:22:04;30.10;42.50
21944;DHT22;11136;48.778;9.126;2023-05-18T14:24:30;30.20;41.90
21944;DHT22;11136;48.778;9.126;2023-05-18T14:26:55;30.00;41.70
21944;DHT22;11136;48.778;9.126;2023-05-18T14:29:21;29.80;42.20
21944;DHT22;11136;48.778;9.126;2023-05-18T14:31:46;30.10;42.00
21944;DHT22;11136;48.778;9.126;2023-05-18T14:34:12;30.30;42.10
21944;DHT22;11136;48.778;9.126;2023-05-18T14:36:38;30.70;42.30
21944;DHT22;11136;48.778;9.126;2023-05-18T14:39:03;31.20;41.60
21944;DHT22;11136;48.778;9.126;2023-05-18T14:41:29;31.70;41.30
21944;DHT22;11136;48.778;9.126;2023-05-18T14:43:55;31.80;40.60
21944;DHT22;11136;48.778;9.126;2023-05-18T14:46:21;31.60;39.40
21944;DHT22;11136;48.778;9.126;2023-05-18T14:48:47;31.00;38.80
21944;DHT22;11136;48.778;9.126;2023-05-18T14:51:13;30.20;39.60
21944;DHT22;11136;48.778;9.126;2023-05-18T14:53:38;29.40;39.40
21944;DHT22;11136;48.778;9.126;2023-05-18T14:56:04;28.60;39.80
21944;DHT22;11136;48.778;9.126;2023-05-18T14:58:33;27.90;40.60
21944;DHT22;11136;48.778;9.126;2023-05-18T15:00:58;27.50;41.80
21944;DHT22;11136;48.778;9.126;2023-05-18T15:03:24;27.40;42.20
21944;DHT22;11136;48.778;9.126;2023-05-18T15:05:49;27.30;42.10
21944;DHT22;11136;48.778;9.126;2023-05-18T15:08:15;27.30;42.20
21944;DHT22;11136;48.778;9.126;2023-05-18T15:10:40;27.30;42.20
21944;DHT22;11136;48.778;9.126;2023-05-18T15:13:06;27.20;42.20
21944;DHT22;11136;48.778;9.126;2023-05-18T15:15:32;27.10;42.50
21944;DHT22;11136;48.778;9.126;2023-05-18T15:17:57;26.90;42.40
21944;DHT22;11136;48.778;9.126;2023-05-18T15:20:23;26.60;42.30
21944;DHT22;11136;48.778;9.126;2023-05-18T15:22:49;26.20;42.60
21944;DHT22;11136;48.778;9.126;2023-05-18T15:25:15;25.70;42.90
21944;DHT22;11136;48.778;9.126;2023-05-18T15:27:41;25.30;43.30
21944;DHT22;11136;48.778;9.126;2023-05-18T15:30:07;25.00;43.70
21944;DHT22;11136;48.778;9.126;2023-05-18T15:32:41;24.70;44.20
21944;DHT22;11136;48.778;9.126;2023-05-18T15:35:07;24.40;44.50
21944;DHT22;11136;48.778;9.126;2023-05-18T15:37:33;24.20;44.90
21944;DHT22;11136;48.778;9.126;2023-05-18T15:39:59;24.00;45.10
21944;DHT22;11136;48.778;9.126;2023-05-18T15:42:25;23.80;45.40
21944;DHT22;11136;48.778;9.126;2023-05-18T15:44:50;23.70;45.80
21944;DHT22;11136;48.778;9.126;2023-05-18T15:47:16;23.60;46.10
21944;DHT22;11136;48.778;9.126;2023-05-18T15:49:42;23.50;46.20
21944;DHT22;11136;48.778;9.126;2023-05-18T15:52:09;23.50;46.40
21944;DHT22;11136;48.778;9.126;2023-05-18T15:54:35;23.30;46.60
21944;DHT22;11136;48.778;9.126;2023-05-18T15:57:01;23.20;46.80
21944;DHT22;11136;48.778;9.126;2023-05-18T15:59:27;23.10;47.00
21944;DHT22;11136;48.778;9.126;2023-05-18T16:01:52;23.00;47.30
21944;DHT22;11136;48.778;9.126;2023-05-18T16:04:18;22.90;47.40
21944;DHT22;11136;48.778;9.126;2023-05-18T16:06:44;22.70;47.60
21944;DHT22;11136;48.778;9.126;2023-05-18T16:09:10;22.70;47.70